AirNav   ATP
 
 390 users online  

I19 Greene County-Lewis A Jackson Regional Airport
Dayton, Ohio, USA

GOING TO DAYTON?


FAA INFORMATION EFFECTIVE 19 JULY 2018

Location

FAA Identifier: I19
Lat/Long: 39-41-27.7000N / 083-59-31.1650W
39-41.461667N / 083-59.519417W
39.6910278 / -83.9919903
(estimated)
Elevation: 949 ft. / 289.3 m (surveyed)
Variation: 05W (1995)
From city: 10 miles E of DAYTON, OH
Time zone: UTC -4 (UTC -5 during Standard Time)
Zip code: 45385

Airport Operations

Airport use: Open to the public
Activation date: 10/1968
Control tower: no
ARTCC: INDIANAPOLIS CENTER
FSS: DAYTON FLIGHT SERVICE STATION
NOTAMs facility: DAY (NOTAM-D service available)
Attendance: NOV MAR 0800-1800, APR-OCT 0800-2000
UNATNDD CHRISTMAS, NEW YEARS & THANKSGIVING DAYS.
Wind indicator: lighted
Segmented circle: no
Lights: ACTVT LIRL RY 07/25 PAPI RY 07/25 & REIL RYS 07 & 25 - CTAF.
Beacon: white-green (lighted land airport)
Operates sunset to sunrise.

Airport Communications

CTAF/UNICOM: 122.7
WX AWOS-3: 118.525 (937-372-4668)
COLUMBUS APPROACH: 118.85
COLUMBUS DEPARTURE: 118.85
IC CLASS C: 118.85
WX AWOS-3PT at SGH (11 nm NE): 134.975
WX ASOS at MGY (12 nm SW): 118.375 (937-885-2171)
WX AWOS-3 at I66 (13 nm SE): 124.175 (937-382-1376)
WX ASOS at DAY (16 nm NW): PHONE 937-415-6819
WX AWOS-3 at I68 (18 nm SW): 120.55 (513-934-5500)
WX ASOS at ILN (18 nm SE): PHONE 937-383-7334

Nearby radio navigation aids

VOR radial/distance  VOR name  Freq  Var
SGHr222/11.1SPRINGFIELD VOR/DME113.2004W
MXQr335/18.0MIDWEST VOR/DME112.9004W
DQNr137/27.0DAYTON VOR/DME114.5001W
RODr181/35.9ROSEWOOD VORTAC117.5005W
RIDr099/39.3RICHMOND VORTAC110.6003W

 
NDB name  Hdg/Dist  Freq  Var  ID
CLARK COUNTY226/14.734104WCCJ -.-. -.-. .---
HOOK FIELD065/24.023904WHKF .... -.- ..-.
COURT HOUSE287/28.341406WCSS -.-. ... ...
MADEIRA035/32.837904WMDE -- -.. .
CINCINNATI031/35.833504WLUK .-.. ..- -.-
HILLSBORO331/36.827805WHOC .... --- -.-.
SPORTYS020/38.324504WPWF .--. .-- ..-.

Airport Services

Fuel available: 100LL JET-A+
FUEL AVBL 24 HRS WITH CREDIT CARD.
Parking: hangars and tiedowns
Airframe service: MAJOR
Powerplant service: MAJOR

Runway Information

Runway 7/25

Dimensions: 4500 x 75 ft. / 1372 x 23 m
Surface: asphalt, in excellent condition
Weight bearing capacity: 
Single wheel: 30.0
Runway edge lights: low intensity
RUNWAY 7  RUNWAY 25
Latitude: 39-41.293833N39-41.629500N
Longitude: 083-59.947167W083-59.091667W
Elevation: 913.9 ft.946.4 ft.
Gradient: 0.7%0.7%
Traffic pattern: leftleft
Runway heading: 068 magnetic, 063 true248 magnetic, 243 true
Markings: nonprecision, in good conditionnonprecision, in good condition
Visual slope indicator: 2-light PAPI on left (4.00 degrees glide path)2-light PAPI on left (4.00 degrees glide path)
Runway end identifier lights: yesyes
Touchdown point: yes, no lightsyes, no lights
Obstructions: 39 ft. trees, 1537 ft. from runway, 330 ft. left of centerline, 34:1 slope to clearnone
+10' TREES AND BRUSH, 0'-199' FM RY END, 195'-250' R OF CNTRLN.

Airport Ownership and Management from official FAA records

Ownership: Publicly-owned
Owner: GREENE COUNTY REGNL ARPT AUTH
140 N VALLEY RD,
XENIA, OH 45385
Phone 937-376-8107
Manager: DAVE KUSHNER
140 N VALLEY RD,
XENIA, OH 45385
Phone 937-376-8107

Airport Operational Statistics

Aircraft based on the field: 72
Single engine airplanes: 62
Multi engine airplanes: 9
Helicopters: 1
    
Aircraft operations: avg 117/day *
91% local general aviation
9% transient general aviation
* for 12-month period ending 10 September 2015

Additional Remarks

DEER ON & INVOF ARPT.
PAEW ADJ RY 07 SR-SS.
COLUMBUS APCH CTL TEL# 614-338-8537.

Instrument Procedures

NOTE: All procedures below are presented as PDF files. If you need a reader for these files, you should download the free Adobe Reader.

NOT FOR NAVIGATION. Please procure official charts for flight.
FAA instrument procedures published for use from 19 July 2018 at 0901Z to 16 August 2018 at 0900Z.

 
IAPs - Instrument Approach Procedures
RNAV (GPS) RWY 07   download (182KB)
RNAV (GPS) RWY 25   download (196KB)
VOR RWY 07   download (209KB)
VOR RWY 25   download (247KB)
NOTE: Special Take-Off Minimums/Departure Procedures apply   download (232KB)

Other nearby airports with instrument procedures:

KFFO - Wright-Patterson Air Force Base (8 nm N)
KSGH - Springfield-Beckley Municipal Airport (11 nm NE)
KMGY - Dayton-Wright Brothers Airport (12 nm SW)
I66 - Clinton Field Airport (13 nm SE)
KDAY - James M Cox Dayton International Airport (16 nm NW)
I68 - Warren County Airport/John Lane Field (18 nm SW)
KILN - Wilmington Air Park (18 nm SE)
 
Loc | Ops | Rwys | IFR | FBO | Links
Com | Nav | Svcs | Stats | Notes


 
Area around I19 (Greene County-Lewis A Jackson Regional Airport)
 
Road maps at: MapQuest Bing Google
 
Aerial photo
WARNING: Photo may not be current or correct
Aerial photo of I19 (Greene County-Lewis A Jackson Regional Airport)
Photo by Anthony Springer
Photo taken 13-Jun-2018
looking northeast.

Do you have a better or more recent aerial photo of Greene County-Lewis A Jackson Regional Airport that you would like to share? If so, please send us your photo.

 
Sectional chart

 
Airport distance calculator
Flying to Greene County-Lewis A Jackson Regional Airport? Find the distance to fly.

From to I19

Sunrise and sunset
Times for 15-Aug-2018
 Local
(UTC-4)
 Zulu
(UTC)
Morning civil twilight06:2010:20
Sunrise06:4910:49
Sunset20:3200:32
Evening civil twilight21:0101:01

Current date and time
Zulu (UTC)  15-Aug-2018 08:01:25
Local (UTC-4)  15-Aug-2018 04:01:25
 
METAR
KFFO 
8nm N 
150756Z AUTO 00000KT 10SM CLR 20/19 A3002 RMK AO2 SLP163 T02000185
KSGH 
11nm NE 
150756Z AUTO 00000KT 10SM CLR 19/18 A3003 RMK AO2 SLP164 T01890183 $
KMGY 
12nm SW 
150753Z AUTO 17004KT 10SM CLR 21/18 A3002 RMK AO2 SLP157 T02110178
KDAY 
16nm NW 
150756Z 19004KT 10SM BKN250 22/19 A3003 RMK AO2 SLP160 T02170189
KILN 
18nm SE 
150754Z AUTO 00000KT 8SM CLR 19/19 A3003 RMK AO2 SLP159 T01890189
KI68 
18nm SW 
150755Z AUTO 00000KT 10SM CLR 21/21 A3004 RMK AO1 T02080208
TAF
KFFO 
8nm N 
150300Z 1503/1609 VRB06KT 9999 SCT050 QNH2998INS BECMG 1514/1515 23010G15KT 9999 BKN035 QNH2996INS TEMPO 1519/1523 22015G25KT 8000 -TSRA OVC040CB BECMG 1523/1524 VRB06KT 8000 -SHRA BKN050 QNH2996INS TX29/1520Z TN21/1510Z
KDAY 
16nm NW 
150536Z 1506/1606 21004KT P6SM BKN250 FM151500 21008KT P6SM SCT050 BKN250 FM152000 21010KT P6SM VCTS BKN050CB FM160000 17007KT P6SM SCT050 BKN120
KILN 
18nm SE 
150536Z 1506/1606 20003KT P6SM BKN250 TEMPO 1509/1512 5SM BR FM151500 22008KT P6SM BKN250 FM151800 21009KT P6SM SCT060 BKN250 FM160000 17005KT P6SM BKN120
NOTAMs
Click for the latest NOTAMs
NOTAMs are issued by the DoD/FAA and will open in a separate window not controlled by AirNav.

 

 
 

FBO, Fuel Providers, and Aircraft Ground Support

  
 Business Name 
 
 Contact 
 
 Services / Description 
 
Fuel Prices
 
Comments
  
 MacAir Aviation
937-347-1302
[web site]
[email]
Aviation fuel, Aircraft ground handling, Aircraft parking (ramp or tiedown), Hangars, Hangar leasing / sales, Passenger terminal and lounge, ...
 
Certificated Pilot School   PSI FAA Test Center  
 
More info about MacAir Aviation
EPIC
100LL Jet A
AS $4.89 $3.49 
 Updated 08-Aug-2018
 
   11 read write
AS=Assisted/Self Service
Update Fuel Prices
 

Would you like to see your business listed on this page?

 If your business provides an interesting product or service to pilots, flight crews, aircraft, or users of the Greene County-Lewis A Jackson Regional Airport, you should consider listing it here.  To start the listing process, click on the button below
 
Add a business
 

Other Pages about Greene County-Lewis A Jackson Regional Airport

www.i19airport.com
 
Update a link
 
Copyright © AirNav, LLC. All rights reserved. Privacy Policy  Contact